sensor_id;sensor_type;location;lat;lon;timestamp;P1;durP1;ratioP1;P2;durP2;ratioP2
42134;SDS011;28312;43.460;11.810;2023-02-28T00:03:17;3.30;;;2.17;;
42134;SDS011;28312;43.460;11.810;2023-02-28T00:07:22;2.72;;;1.77;;
42134;SDS011;28312;43.460;11.810;2023-02-28T00:11:25;3.35;;;1.55;;
42134;SDS011;28312;43.460;11.810;2023-02-28T00:15:30;2.42;;;1.70;;
42134;SDS011;28312;43.460;11.810;2023-02-28T00:19:34;2.60;;;1.90;;
42134;SDS011;28312;43.460;11.810;2023-02-28T00:23:38;2.00;;;1.20;;
42134;SDS011;28312;43.460;11.810;2023-02-28T00:27:42;1.90;;;1.30;;
42134;SDS011;28312;43.460;11.810;2023-02-28T00:31:46;2.33;;;1.80;;
42134;SDS011;28312;43.460;11.810;2023-02-28T00:35:50;2.90;;;2.00;;
42134;SDS011;28312;43.460;11.810;2023-02-28T00:39:56;4.72;;;2.20;;
42134;SDS011;28312;43.460;11.810;2023-02-28T00:43:59;2.28;;;1.58;;
42134;SDS011;28312;43.460;11.810;2023-02-28T00:48:03;2.33;;;1.60;;
42134;SDS011;28312;43.460;11.810;2023-02-28T00:52:07;3.38;;;1.90;;
42134;SDS011;28312;43.460;11.810;2023-02-28T00:56:10;2.38;;;1.65;;
42134;SDS011;28312;43.460;11.810;2023-02-28T01:00:14;2.63;;;1.60;;
42134;SDS011;28312;43.460;11.810;2023-02-28T01:04:18;2.85;;;1.48;;
42134;SDS011;28312;43.460;11.810;2023-02-28T01:08:21;2.38;;;1.70;;
42134;SDS011;28312;43.460;11.810;2023-02-28T01:12:25;3.17;;;1.55;;
42134;SDS011;28312;43.460;11.810;2023-02-28T01:16:32;3.67;;;2.22;;
42134;SDS011;28312;43.460;11.810;2023-02-28T01:20:37;3.25;;;1.85;;
42134;SDS011;28312;43.460;11.810;2023-02-28T01:24:41;2.63;;;2.00;;
42134;SDS011;28312;43.460;11.810;2023-02-28T01:28:47;1.77;;;1.20;;
42134;SDS011;28312;43.460;11.810;2023-02-28T01:32:53;2.08;;;1.10;;
42134;SDS011;28312;43.460;11.810;2023-02-28T01:36:56;1.90;;;1.20;;
42134;SDS011;28312;43.460;11.810;2023-02-28T01:41:02;3.20;;;1.98;;
42134;SDS011;28312;43.460;11.810;2023-02-28T01:49:26;3.33;;;2.08;;
42134;SDS011;28312;43.460;11.810;2023-02-28T01:53:32;1.88;;;1.15;;
42134;SDS011;28312;43.460;11.810;2023-02-28T01:57:40;2.55;;;1.73;;
42134;SDS011;28312;43.460;11.810;2023-02-28T02:01:50;2.30;;;1.67;;
42134;SDS011;28312;43.460;11.810;2023-02-28T02:05:54;4.47;;;2.38;;
42134;SDS011;28312;43.460;11.810;2023-02-28T02:10:01;3.08;;;1.85;;
42134;SDS011;28312;43.460;11.810;2023-02-28T02:18:53;1.80;;;1.33;;
42134;SDS011;28312;43.460;11.810;2023-02-28T02:31:54;3.78;;;2.40;;
42134;SDS011;28312;43.460;11.810;2023-02-28T02:36:29;1.48;;;1.13;;
42134;SDS011;28312;43.460;11.810;2023-02-28T02:40:47;2.95;;;2.03;;
42134;SDS011;28312;43.460;11.810;2023-02-28T02:45:19;2.60;;;1.63;;
42134;SDS011;28312;43.460;11.810;2023-02-28T02:49:38;3.17;;;2.05;;
42134;SDS011;28312;43.460;11.810;2023-02-28T02:53:49;6.10;;;2.53;;
42134;SDS011;28312;43.460;11.810;2023-02-28T02:58:10;3.45;;;2.33;;
42134;SDS011;28312;43.460;11.810;2023-02-28T03:02:19;2.50;;;1.58;;
42134;SDS011;28312;43.460;11.810;2023-02-28T03:06:26;2.17;;;1.55;;
42134;SDS011;28312;43.460;11.810;2023-02-28T03:10:33;2.90;;;2.10;;
42134;SDS011;28312;43.460;11.810;2023-02-28T03:14:48;2.33;;;1.60;;
42134;SDS011;28312;43.460;11.810;2023-02-28T03:23:23;3.22;;;2.40;;
42134;SDS011;28312;43.460;11.810;2023-02-28T03:36:09;2.17;;;1.52;;
42134;SDS011;28312;43.460;11.810;2023-02-28T03:40:21;2.03;;;1.17;;
42134;SDS011;28312;43.460;11.810;2023-02-28T03:44:34;2.25;;;1.27;;
42134;SDS011;28312;43.460;11.810;2023-02-28T03:48:55;3.08;;;2.28;;
42134;SDS011;28312;43.460;11.810;2023-02-28T03:57:56;4.28;;;2.55;;
42134;SDS011;28312;43.460;11.810;2023-02-28T04:02:02;2.45;;;2.13;;
42134;SDS011;28312;43.460;11.810;2023-02-28T04:06:07;3.42;;;2.13;;
42134;SDS011;28312;43.460;11.810;2023-02-28T04:10:16;1.90;;;1.30;;
42134;SDS011;28312;43.460;11.810;2023-02-28T04:14:21;2.30;;;1.63;;
42134;SDS011;28312;43.460;11.810;2023-02-28T04:18:25;3.80;;;2.85;;
42134;SDS011;28312;43.460;11.810;2023-02-28T04:22:29;3.60;;;2.83;;
42134;SDS011;28312;43.460;11.810;2023-02-28T04:26:33;3.38;;;2.17;;
42134;SDS011;28312;43.460;11.810;2023-02-28T04:30:38;3.67;;;1.90;;
42134;SDS011;28312;43.460;11.810;2023-02-28T04:34:41;3.42;;;2.55;;
42134;SDS011;28312;43.460;11.810;2023-02-28T04:38:45;3.47;;;2.55;;
42134;SDS011;28312;43.460;11.810;2023-02-28T04:42:50;3.63;;;2.58;;
42134;SDS011;28312;43.460;11.810;2023-02-28T04:46:56;2.72;;;1.83;;
42134;SDS011;28312;43.460;11.810;2023-02-28T04:51:03;2.95;;;2.17;;
42134;SDS011;28312;43.460;11.810;2023-02-28T04:55:11;3.20;;;2.40;;
42134;SDS011;28312;43.460;11.810;2023-02-28T04:59:15;3.63;;;2.55;;
42134;SDS011;28312;43.460;11.810;2023-02-28T05:03:19;3.72;;;2.47;;
42134;SDS011;28312;43.460;11.810;2023-02-28T05:07:24;2.40;;;1.93;;
42134;SDS011;28312;43.460;11.810;2023-02-28T05:11:30;3.88;;;2.55;;
42134;SDS011;28312;43.460;11.810;2023-02-28T05:15:38;3.45;;;2.40;;
42134;SDS011;28312;43.460;11.810;2023-02-28T05:19:44;2.72;;;2.10;;
42134;SDS011;28312;43.460;11.810;2023-02-28T05:23:47;2.85;;;1.55;;
42134;SDS011;28312;43.460;11.810;2023-02-28T05:27:51;3.70;;;2.65;;
42134;SDS011;28312;43.460;11.810;2023-02-28T05:31:57;3.70;;;2.53;;
42134;SDS011;28312;43.460;11.810;2023-02-28T05:36:01;3.47;;;2.08;;
42134;SDS011;28312;43.460;11.810;2023-02-28T05:40:05;3.72;;;2.45;;
42134;SDS011;28312;43.460;11.810;2023-02-28T05:44:10;3.33;;;2.50;;
42134;SDS011;28312;43.460;11.810;2023-02-28T05:48:15;2.42;;;1.45;;
42134;SDS011;28312;43.460;11.810;2023-02-28T05:52:20;3.13;;;2.15;;
42134;SDS011;28312;43.460;11.810;2023-02-28T05:56:24;1.67;;;1.08;;
42134;SDS011;28312;43.460;11.810;2023-02-28T06:00:27;3.03;;;2.15;;
42134;SDS011;28312;43.460;11.810;2023-02-28T06:04:32;3.25;;;2.13;;
42134;SDS011;28312;43.460;11.810;2023-02-28T06:08:36;2.70;;;1.60;;
42134;SDS011;28312;43.460;11.810;2023-02-28T06:12:39;2.78;;;1.58;;
42134;SDS011;28312;43.460;11.810;2023-02-28T06:16:44;2.35;;;1.45;;
42134;SDS011;28312;43.460;11.810;2023-02-28T06:20:54;3.03;;;1.60;;
42134;SDS011;28312;43.460;11.810;2023-02-28T06:24:58;2.20;;;1.33;;
42134;SDS011;28312;43.460;11.810;2023-02-28T06:29:02;1.80;;;1.10;;
42134;SDS011;28312;43.460;11.810;2023-02-28T06:33:07;1.80;;;1.30;;
42134;SDS011;28312;43.460;11.810;2023-02-28T06:37:11;1.33;;;1.00;;
42134;SDS011;28312;43.460;11.810;2023-02-28T06:41:15;1.88;;;1.30;;
42134;SDS011;28312;43.460;11.810;2023-02-28T06:45:18;1.92;;;1.02;;
42134;SDS011;28312;43.460;11.810;2023-02-28T06:49:22;1.30;;;0.90;;
42134;SDS011;28312;43.460;11.810;2023-02-28T06:53:25;2.00;;;1.20;;
42134;SDS011;28312;43.460;11.810;2023-02-28T06:57:30;1.50;;;0.93;;
42134;SDS011;28312;43.460;11.810;2023-02-28T07:01:35;1.73;;;1.23;;
42134;SDS011;28312;43.460;11.810;2023-02-28T07:05:39;1.50;;;0.93;;
42134;SDS011;28312;43.460;11.810;2023-02-28T07:09:42;1.23;;;0.80;;
42134;SDS011;28312;43.460;11.810;2023-02-28T07:13:46;1.10;;;0.77;;
42134;SDS011;28312;43.460;11.810;2023-02-28T07:17:50;1.25;;;0.80;;
42134;SDS011;28312;43.460;11.810;2023-02-28T07:21:53;1.08;;;0.73;;
42134;SDS011;28312;43.460;11.810;2023-02-28T07:25:57;4.35;;;3.28;;
42134;SDS011;28312;43.460;11.810;2023-02-28T07:30:02;1.40;;;0.85;;
42134;SDS011;28312;43.460;11.810;2023-02-28T07:34:06;0.95;;;0.75;;
42134;SDS011;28312;43.460;11.810;2023-02-28T07:38:10;1.70;;;1.00;;
42134;SDS011;28312;43.460;11.810;2023-02-28T07:42:18;1.10;;;0.68;;
42134;SDS011;28312;43.460;11.810;2023-02-28T07:46:21;1.27;;;0.75;;
42134;SDS011;28312;43.460;11.810;2023-02-28T07:50:26;1.52;;;0.90;;
42134;SDS011;28312;43.460;11.810;2023-02-28T07:54:37;1.58;;;1.02;;
42134;SDS011;28312;43.460;11.810;2023-02-28T07:58:41;1.30;;;0.77;;
42134;SDS011;28312;43.460;11.810;2023-02-28T08:02:44;2.60;;;1.17;;
42134;SDS011;28312;43.460;11.810;2023-02-28T08:06:48;1.67;;;1.10;;
42134;SDS011;28312;43.460;11.810;2023-02-28T08:10:54;2.70;;;1.20;;
42134;SDS011;28312;43.460;11.810;2023-02-28T08:15:01;2.28;;;1.38;;
42134;SDS011;28312;43.460;11.810;2023-02-28T08:19:05;1.90;;;1.20;;
42134;SDS011;28312;43.460;11.810;2023-02-28T08:23:09;2.20;;;1.50;;
42134;SDS011;28312;43.460;11.810;2023-02-28T08:27:12;1.90;;;1.20;;
42134;SDS011;28312;43.460;11.810;2023-02-28T08:31:16;2.10;;;1.38;;
42134;SDS011;28312;43.460;11.810;2023-02-28T08:35:20;2.25;;;1.33;;
42134;SDS011;28312;43.460;11.810;2023-02-28T08:39:24;2.20;;;1.30;;
42134;SDS011;28312;43.460;11.810;2023-02-28T08:43:28;2.30;;;1.52;;
42134;SDS011;28312;43.460;11.810;2023-02-28T08:47:32;2.95;;;1.23;;
42134;SDS011;28312;43.460;11.810;2023-02-28T08:51:35;1.80;;;1.10;;
42134;SDS011;28312;43.460;11.810;2023-02-28T08:55:39;2.25;;;1.15;;
42134;SDS011;28312;43.460;11.810;2023-02-28T08:59:42;1.73;;;1.10;;
42134;SDS011;28312;43.460;11.810;2023-02-28T09:03:46;1.98;;;1.20;;
42134;SDS011;28312;43.460;11.810;2023-02-28T09:07:51;2.88;;;1.30;;
42134;SDS011;28312;43.460;11.810;2023-02-28T09:11:55;2.70;;;1.10;;
42134;SDS011;28312;43.460;11.810;2023-02-28T09:16:00;1.50;;;1.02;;
42134;SDS011;28312;43.460;11.810;2023-02-28T09:20:05;1.90;;;1.30;;
42134;SDS011;28312;43.460;11.810;2023-02-28T09:24:09;1.92;;;1.23;;
42134;SDS011;28312;43.460;11.810;2023-02-28T09:28:15;1.75;;;1.10;;
42134;SDS011;28312;43.460;11.810;2023-02-28T09:32:19;1.65;;;1.08;;
42134;SDS011;28312;43.460;11.810;2023-02-28T09:36:24;1.98;;;1.25;;
42134;SDS011;28312;43.460;11.810;2023-02-28T09:44:57;1.77;;;1.10;;
42134;SDS011;28312;43.460;11.810;2023-02-28T09:49:05;2.30;;;1.40;;
42134;SDS011;28312;43.460;11.810;2023-02-28T09:53:31;1.70;;;0.82;;
42134;SDS011;28312;43.460;11.810;2023-02-28T09:57:41;2.13;;;0.93;;
42134;SDS011;28312;43.460;11.810;2023-02-28T10:14:24;2.00;;;1.40;;
42134;SDS011;28312;43.460;11.810;2023-02-28T10:26:56;2.50;;;1.50;;
42134;SDS011;28312;43.460;11.810;2023-02-28T10:31:20;2.42;;;1.67;;
42134;SDS011;28312;43.460;11.810;2023-02-28T10:35:26;2.58;;;1.77;;
42134;SDS011;28312;43.460;11.810;2023-02-28T10:39:45;1.98;;;1.10;;
42134;SDS011;28312;43.460;11.810;2023-02-28T10:43:49;1.95;;;1.33;;
42134;SDS011;28312;43.460;11.810;2023-02-28T10:47:53;2.28;;;1.58;;
42134;SDS011;28312;43.460;11.810;2023-02-28T10:52:02;2.42;;;1.20;;
42134;SDS011;28312;43.460;11.810;2023-02-28T10:56:16;2.70;;;1.20;;
42134;SDS011;28312;43.460;11.810;2023-02-28T11:00:24;2.15;;;1.48;;
42134;SDS011;28312;43.460;11.810;2023-02-28T11:08:32;2.17;;;1.58;;
42134;SDS011;28312;43.460;11.810;2023-02-28T11:12:37;1.88;;;1.30;;
42134;SDS011;28312;43.460;11.810;2023-02-28T11:21:00;2.65;;;1.50;;
42134;SDS011;28312;43.460;11.810;2023-02-28T11:29:32;2.70;;;1.75;;
42134;SDS011;28312;43.460;11.810;2023-02-28T11:33:48;2.65;;;1.80;;
42134;SDS011;28312;43.460;11.810;2023-02-28T11:37:53;3.30;;;2.33;;
42134;SDS011;28312;43.460;11.810;2023-02-28T11:46:49;3.92;;;2.10;;
42134;SDS011;28312;43.460;11.810;2023-02-28T11:51:05;3.40;;;1.80;;
42134;SDS011;28312;43.460;11.810;2023-02-28T11:55:25;3.10;;;2.20;;
42134;SDS011;28312;43.460;11.810;2023-02-28T11:59:46;3.03;;;2.05;;
42134;SDS011;28312;43.460;11.810;2023-02-28T12:04:25;3.58;;;2.15;;
42134;SDS011;28312;43.460;11.810;2023-02-28T12:08:45;2.60;;;1.67;;
42134;SDS011;28312;43.460;11.810;2023-02-28T12:13:16;2.15;;;1.40;;
42134;SDS011;28312;43.460;11.810;2023-02-28T12:17:29;2.63;;;1.70;;
42134;SDS011;28312;43.460;11.810;2023-02-28T12:34:26;2.83;;;1.50;;
42134;SDS011;28312;43.460;11.810;2023-02-28T12:38:36;4.30;;;2.20;;
42134;SDS011;28312;43.460;11.810;2023-02-28T12:42:57;3.25;;;1.85;;
42134;SDS011;28312;43.460;11.810;2023-02-28T12:47:05;3.22;;;1.95;;
42134;SDS011;28312;43.460;11.810;2023-02-28T12:51:16;3.72;;;1.92;;
42134;SDS011;28312;43.460;11.810;2023-02-28T12:59:37;2.88;;;1.90;;
42134;SDS011;28312;43.460;11.810;2023-02-28T13:08:20;3.42;;;2.35;;
42134;SDS011;28312;43.460;11.810;2023-02-28T13:12:27;2.92;;;2.17;;
42134;SDS011;28312;43.460;11.810;2023-02-28T13:20:55;3.67;;;2.50;;
42134;SDS011;28312;43.460;11.810;2023-02-28T13:24:59;3.55;;;2.33;;
42134;SDS011;28312;43.460;11.810;2023-02-28T13:33:22;2.83;;;2.05;;
42134;SDS011;28312;43.460;11.810;2023-02-28T13:41:41;3.33;;;2.45;;
42134;SDS011;28312;43.460;11.810;2023-02-28T14:08:21;4.93;;;3.47;;
42134;SDS011;28312;43.460;11.810;2023-02-28T14:17:01;3.85;;;2.78;;
42134;SDS011;28312;43.460;11.810;2023-02-28T14:34:17;3.97;;;2.80;;
42134;SDS011;28312;43.460;11.810;2023-02-28T14:38:27;5.25;;;3.15;;
42134;SDS011;28312;43.460;11.810;2023-02-28T14:42:35;3.78;;;2.53;;
42134;SDS011;28312;43.460;11.810;2023-02-28T14:46:44;5.10;;;3.00;;
42134;SDS011;28312;43.460;11.810;2023-02-28T14:54:56;3.55;;;2.60;;
42134;SDS011;28312;43.460;11.810;2023-02-28T15:03:46;2.92;;;1.90;;
42134;SDS011;28312;43.460;11.810;2023-02-28T15:08:00;3.08;;;1.73;;
42134;SDS011;28312;43.460;11.810;2023-02-28T15:12:06;2.63;;;1.90;;
42134;SDS011;28312;43.460;11.810;2023-02-28T15:20:34;2.92;;;1.90;;
42134;SDS011;28312;43.460;11.810;2023-02-28T15:24:44;2.83;;;1.90;;
42134;SDS011;28312;43.460;11.810;2023-02-28T15:28:53;3.00;;;2.10;;
42134;SDS011;28312;43.460;11.810;2023-02-28T15:33:02;2.53;;;1.77;;
42134;SDS011;28312;43.460;11.810;2023-02-28T15:41:50;3.22;;;2.30;;
42134;SDS011;28312;43.460;11.810;2023-02-28T15:50:01;3.00;;;2.15;;
42134;SDS011;28312;43.460;11.810;2023-02-28T15:54:14;2.88;;;2.03;;
42134;SDS011;28312;43.460;11.810;2023-02-28T15:58:24;5.82;;;2.40;;
42134;SDS011;28312;43.460;11.810;2023-02-28T16:10:44;4.13;;;2.67;;
42134;SDS011;28312;43.460;11.810;2023-02-28T16:14:49;3.65;;;2.53;;
42134;SDS011;28312;43.460;11.810;2023-02-28T16:18:54;3.97;;;2.73;;
42134;SDS011;28312;43.460;11.810;2023-02-28T16:22:58;3.47;;;2.70;;
42134;SDS011;28312;43.460;11.810;2023-02-28T16:27:04;3.93;;;2.90;;
42134;SDS011;28312;43.460;11.810;2023-02-28T16:31:07;3.88;;;2.70;;
42134;SDS011;28312;43.460;11.810;2023-02-28T16:35:17;4.65;;;3.08;;
42134;SDS011;28312;43.460;11.810;2023-02-28T16:39:21;8.30;;;3.95;;
42134;SDS011;28312;43.460;11.810;2023-02-28T16:43:25;8.52;;;5.70;;
42134;SDS011;28312;43.460;11.810;2023-02-28T16:47:30;14.70;;;11.90;;
42134;SDS011;28312;43.460;11.810;2023-02-28T16:51:35;5.95;;;4.70;;
42134;SDS011;28312;43.460;11.810;2023-02-28T16:55:39;9.50;;;7.65;;
42134;SDS011;28312;43.460;11.810;2023-02-28T16:59:42;5.07;;;4.00;;
42134;SDS011;28312;43.460;11.810;2023-02-28T17:03:46;5.43;;;3.65;;
42134;SDS011;28312;43.460;11.810;2023-02-28T17:07:50;5.80;;;3.65;;
42134;SDS011;28312;43.460;11.810;2023-02-28T17:11:54;4.78;;;4.15;;
42134;SDS011;28312;43.460;11.810;2023-02-28T17:15:59;4.43;;;2.60;;
42134;SDS011;28312;43.460;11.810;2023-02-28T17:20:03;4.70;;;3.50;;
42134;SDS011;28312;43.460;11.810;2023-02-28T17:24:08;4.70;;;2.78;;
42134;SDS011;28312;43.460;11.810;2023-02-28T17:28:20;6.72;;;2.92;;
42134;SDS011;28312;43.460;11.810;2023-02-28T17:32:24;4.43;;;3.17;;
42134;SDS011;28312;43.460;11.810;2023-02-28T17:36:28;3.97;;;3.08;;
42134;SDS011;28312;43.460;11.810;2023-02-28T17:40:32;3.97;;;2.42;;
42134;SDS011;28312;43.460;11.810;2023-02-28T17:44:36;4.05;;;3.05;;
42134;SDS011;28312;43.460;11.810;2023-02-28T17:48:41;3.75;;;2.92;;
42134;SDS011;28312;43.460;11.810;2023-02-28T17:52:44;2.55;;;2.15;;
42134;SDS011;28312;43.460;11.810;2023-02-28T17:56:48;4.03;;;3.10;;
42134;SDS011;28312;43.460;11.810;2023-02-28T18:00:52;3.25;;;2.30;;
42134;SDS011;28312;43.460;11.810;2023-02-28T18:04:57;4.18;;;2.45;;
42134;SDS011;28312;43.460;11.810;2023-02-28T18:09:00;3.80;;;2.63;;
42134;SDS011;28312;43.460;11.810;2023-02-28T18:13:06;3.63;;;3.00;;
42134;SDS011;28312;43.460;11.810;2023-02-28T18:17:11;5.85;;;3.30;;
42134;SDS011;28312;43.460;11.810;2023-02-28T18:21:16;4.90;;;3.70;;
42134;SDS011;28312;43.460;11.810;2023-02-28T18:25:20;3.78;;;2.53;;
42134;SDS011;28312;43.460;11.810;2023-02-28T18:29:26;4.72;;;3.70;;
42134;SDS011;28312;43.460;11.810;2023-02-28T18:33:31;5.03;;;3.88;;
42134;SDS011;28312;43.460;11.810;2023-02-28T18:37:35;3.47;;;2.78;;
42134;SDS011;28312;43.460;11.810;2023-02-28T18:41:40;7.28;;;5.38;;
42134;SDS011;28312;43.460;11.810;2023-02-28T18:45:45;5.45;;;4.10;;
42134;SDS011;28312;43.460;11.810;2023-02-28T18:49:49;5.72;;;4.30;;
42134;SDS011;28312;43.460;11.810;2023-02-28T18:53:53;7.63;;;3.47;;
42134;SDS011;28312;43.460;11.810;2023-02-28T18:57:57;6.70;;;4.82;;
42134;SDS011;28312;43.460;11.810;2023-02-28T19:02:02;6.20;;;4.72;;
42134;SDS011;28312;43.460;11.810;2023-02-28T19:06:07;6.50;;;5.07;;
42134;SDS011;28312;43.460;11.810;2023-02-28T19:10:12;5.80;;;4.35;;
42134;SDS011;28312;43.460;11.810;2023-02-28T19:14:17;5.38;;;3.97;;
42134;SDS011;28312;43.460;11.810;2023-02-28T19:18:22;4.63;;;4.07;;
42134;SDS011;28312;43.460;11.810;2023-02-28T19:22:26;4.78;;;3.60;;
42134;SDS011;28312;43.460;11.810;2023-02-28T19:26:32;5.13;;;3.50;;
42134;SDS011;28312;43.460;11.810;2023-02-28T19:30:36;4.53;;;3.55;;
42134;SDS011;28312;43.460;11.810;2023-02-28T19:38:48;5.50;;;4.40;;
42134;SDS011;28312;43.460;11.810;2023-02-28T19:42:52;5.68;;;4.35;;
42134;SDS011;28312;43.460;11.810;2023-02-28T19:46:56;5.35;;;3.85;;
42134;SDS011;28312;43.460;11.810;2023-02-28T19:51:01;9.70;;;4.57;;
42134;SDS011;28312;43.460;11.810;2023-02-28T19:55:08;5.20;;;3.85;;
42134;SDS011;28312;43.460;11.810;2023-02-28T19:59:13;6.60;;;4.05;;
42134;SDS011;28312;43.460;11.810;2023-02-28T20:03:32;6.93;;;4.07;;
42134;SDS011;28312;43.460;11.810;2023-02-28T20:07:36;6.50;;;4.57;;
42134;SDS011;28312;43.460;11.810;2023-02-28T20:11:41;6.65;;;4.50;;
42134;SDS011;28312;43.460;11.810;2023-02-28T20:15:48;5.78;;;4.45;;
42134;SDS011;28312;43.460;11.810;2023-02-28T20:19:52;4.78;;;3.53;;
42134;SDS011;28312;43.460;11.810;2023-02-28T20:23:57;6.78;;;4.68;;
42134;SDS011;28312;43.460;11.810;2023-02-28T20:28:01;6.25;;;4.65;;
42134;SDS011;28312;43.460;11.810;2023-02-28T20:32:04;5.55;;;4.22;;
42134;SDS011;28312;43.460;11.810;2023-02-28T20:36:10;7.07;;;4.45;;
42134;SDS011;28312;43.460;11.810;2023-02-28T20:40:14;5.47;;;3.72;;
42134;SDS011;28312;43.460;11.810;2023-02-28T20:44:21;5.07;;;3.67;;
42134;SDS011;28312;43.460;11.810;2023-02-28T20:48:25;6.55;;;5.75;;
42134;SDS011;28312;43.460;11.810;2023-02-28T20:52:29;5.30;;;4.13;;
42134;SDS011;28312;43.460;11.810;2023-02-28T20:56:33;7.65;;;5.35;;
42134;SDS011;28312;43.460;11.810;2023-02-28T21:00:37;4.93;;;2.92;;
42134;SDS011;28312;43.460;11.810;2023-02-28T21:04:40;6.78;;;4.72;;
42134;SDS011;28312;43.460;11.810;2023-02-28T21:08:44;6.32;;;4.82;;
42134;SDS011;28312;43.460;11.810;2023-02-28T21:12:49;5.75;;;4.47;;
42134;SDS011;28312;43.460;11.810;2023-02-28T21:16:55;7.25;;;4.82;;
42134;SDS011;28312;43.460;11.810;2023-02-28T21:21:03;7.57;;;4.32;;
42134;SDS011;28312;43.460;11.810;2023-02-28T21:25:09;4.93;;;4.03;;
42134;SDS011;28312;43.460;11.810;2023-02-28T21:29:13;6.38;;;4.65;;
42134;SDS011;28312;43.460;11.810;2023-02-28T21:33:17;6.65;;;5.15;;
42134;SDS011;28312;43.460;11.810;2023-02-28T21:37:21;13.98;;;10.70;;
42134;SDS011;28312;43.460;11.810;2023-02-28T21:41:32;8.82;;;5.78;;
42134;SDS011;28312;43.460;11.810;2023-02-28T21:45:38;5.95;;;4.40;;
42134;SDS011;28312;43.460;11.810;2023-02-28T21:49:42;7.15;;;4.97;;
42134;SDS011;28312;43.460;11.810;2023-02-28T21:53:46;6.05;;;4.30;;
42134;SDS011;28312;43.460;11.810;2023-02-28T21:57:50;6.18;;;3.80;;
42134;SDS011;28312;43.460;11.810;2023-02-28T22:01:54;5.80;;;4.60;;
42134;SDS011;28312;43.460;11.810;2023-02-28T22:05:57;4.93;;;3.67;;
42134;SDS011;28312;43.460;11.810;2023-02-28T22:10:03;5.88;;;4.13;;
42134;SDS011;28312;43.460;11.810;2023-02-28T22:14:07;4.78;;;3.83;;
42134;SDS011;28312;43.460;11.810;2023-02-28T22:18:14;5.35;;;3.50;;
42134;SDS011;28312;43.460;11.810;2023-02-28T22:22:18;5.20;;;3.35;;
42134;SDS011;28312;43.460;11.810;2023-02-28T22:26:21;5.15;;;3.22;;
42134;SDS011;28312;43.460;11.810;2023-02-28T22:30:25;4.97;;;3.35;;
42134;SDS011;28312;43.460;11.810;2023-02-28T22:34:30;3.78;;;2.60;;
42134;SDS011;28312;43.460;11.810;2023-02-28T22:38:34;4.53;;;3.28;;
42134;SDS011;28312;43.460;11.810;2023-02-28T22:42:37;4.05;;;3.05;;
42134;SDS011;28312;43.460;11.810;2023-02-28T22:46:43;4.13;;;3.28;;
42134;SDS011;28312;43.460;11.810;2023-02-28T22:50:47;5.07;;;3.78;;
42134;SDS011;28312;43.460;11.810;2023-02-28T22:54:51;3.42;;;2.67;;
42134;SDS011;28312;43.460;11.810;2023-02-28T22:58:55;3.75;;;2.42;;
42134;SDS011;28312;43.460;11.810;2023-02-28T23:03:00;2.70;;;1.90;;
42134;SDS011;28312;43.460;11.810;2023-02-28T23:07:03;4.68;;;3.45;;
42134;SDS011;28312;43.460;11.810;2023-02-28T23:11:08;5.18;;;3.35;;
42134;SDS011;28312;43.460;11.810;2023-02-28T23:15:12;5.50;;;2.83;;
42134;SDS011;28312;43.460;11.810;2023-02-28T23:19:18;4.03;;;3.10;;
42134;SDS011;28312;43.460;11.810;2023-02-28T23:23:25;3.63;;;2.65;;
42134;SDS011;28312;43.460;11.810;2023-02-28T23:27:29;3.75;;;2.55;;
42134;SDS011;28312;43.460;11.810;2023-02-28T23:31:32;4.65;;;3.08;;
42134;SDS011;28312;43.460;11.810;2023-02-28T23:35:36;3.80;;;2.40;;
42134;SDS011;28312;43.460;11.810;2023-02-28T23:39:39;3.08;;;2.05;;
42134;SDS011;28312;43.460;11.810;2023-02-28T23:43:43;4.88;;;2.65;;
42134;SDS011;28312;43.460;11.810;2023-02-28T23:47:46;3.88;;;2.47;;
42134;SDS011;28312;43.460;11.810;2023-02-28T23:51:50;3.00;;;2.15;;
42134;SDS011;28312;43.460;11.810;2023-02-28T23:55:56;3.90;;;2.85;;
